sensor_id;sensor_type;location;lat;lon;timestamp;P1;durP1;ratioP1;P2;durP2;ratioP2
85662;SDS011;76094;55.506;37.950;2024-03-08T00:00:11;24.88;;;8.75;;
85662;SDS011;76094;55.506;37.950;2024-03-08T00:02:43;22.85;;;8.48;;
85662;SDS011;76094;55.506;37.950;2024-03-08T00:05:10;15.73;;;8.15;;
85662;SDS011;76094;55.506;37.950;2024-03-08T00:07:40;30.35;;;9.43;;
85662;SDS011;76094;55.506;37.950;2024-03-08T00:10:08;18.65;;;8.55;;
85662;SDS011;76094;55.506;37.950;2024-03-08T00:12:38;18.48;;;8.13;;
85662;SDS011;76094;55.506;37.950;2024-03-08T00:15:05;28.23;;;8.88;;
85662;SDS011;76094;55.506;37.950;2024-03-08T00:17:32;29.45;;;8.73;;
85662;SDS011;76094;55.506;37.950;2024-03-08T00:19:58;28.38;;;7.90;;
85662;SDS011;76094;55.506;37.950;2024-03-08T00:22:24;25.55;;;8.50;;
85662;SDS011;76094;55.506;37.950;2024-03-08T00:24:51;28.88;;;8.68;;
85662;SDS011;76094;55.506;37.950;2024-03-08T00:27:17;24.77;;;9.50;;
85662;SDS011;76094;55.506;37.950;2024-03-08T00:29:47;30.25;;;8.70;;
85662;SDS011;76094;55.506;37.950;2024-03-08T00:32:13;20.98;;;8.57;;
85662;SDS011;76094;55.506;37.950;2024-03-08T00:34:39;34.30;;;10.25;;
85662;SDS011;76094;55.506;37.950;2024-03-08T00:37:05;28.38;;;8.68;;
85662;SDS011;76094;55.506;37.950;2024-03-08T00:39:32;25.13;;;8.45;;
85662;SDS011;76094;55.506;37.950;2024-03-08T00:41:58;23.65;;;8.75;;
85662;SDS011;76094;55.506;37.950;2024-03-08T00:44:24;19.52;;;8.25;;
85662;SDS011;76094;55.506;37.950;2024-03-08T00:46:51;26.80;;;8.10;;
85662;SDS011;76094;55.506;37.950;2024-03-08T00:49:17;24.08;;;8.10;;
85662;SDS011;76094;55.506;37.950;2024-03-08T00:51:43;26.73;;;9.25;;
85662;SDS011;76094;55.506;37.950;2024-03-08T00:54:10;22.98;;;8.15;;
85662;SDS011;76094;55.506;37.950;2024-03-08T00:56:36;22.10;;;7.85;;
85662;SDS011;76094;55.506;37.950;2024-03-08T00:59:06;21.90;;;7.38;;
85662;SDS011;76094;55.506;37.950;2024-03-08T01:01:33;25.65;;;8.00;;
85662;SDS011;76094;55.506;37.950;2024-03-08T01:03:59;20.60;;;8.10;;
85662;SDS011;76094;55.506;37.950;2024-03-08T01:06:25;27.05;;;8.38;;
85662;SDS011;76094;55.506;37.950;2024-03-08T01:08:53;19.20;;;8.82;;
85662;SDS011;76094;55.506;37.950;2024-03-08T01:11:19;19.88;;;8.55;;
85662;SDS011;76094;55.506;37.950;2024-03-08T01:13:45;19.23;;;9.13;;
85662;SDS011;76094;55.506;37.950;2024-03-08T01:16:13;19.45;;;7.82;;
85662;SDS011;76094;55.506;37.950;2024-03-08T01:18:39;28.85;;;8.27;;
85662;SDS011;76094;55.506;37.950;2024-03-08T01:21:05;11.88;;;6.75;;
85662;SDS011;76094;55.506;37.950;2024-03-08T01:23:32;23.13;;;7.80;;
85662;SDS011;76094;55.506;37.950;2024-03-08T01:25:58;19.77;;;7.60;;
85662;SDS011;76094;55.506;37.950;2024-03-08T01:28:25;20.58;;;7.70;;
85662;SDS011;76094;55.506;37.950;2024-03-08T01:30:52;17.60;;;7.45;;
85662;SDS011;76094;55.506;37.950;2024-03-08T01:33:22;16.45;;;7.03;;
85662;SDS011;76094;55.506;37.950;2024-03-08T01:35:49;18.58;;;7.35;;
85662;SDS011;76094;55.506;37.950;2024-03-08T01:38:16;20.75;;;6.97;;
85662;SDS011;76094;55.506;37.950;2024-03-08T01:40:42;17.42;;;6.13;;
85662;SDS011;76094;55.506;37.950;2024-03-08T01:43:42;12.18;;;6.50;;
85662;SDS011;76094;55.506;37.950;2024-03-08T01:46:01;10.18;;;5.78;;
85662;SDS011;76094;55.506;37.950;2024-03-08T01:48:28;12.50;;;5.80;;
85662;SDS011;76094;55.506;37.950;2024-03-08T01:50:55;13.57;;;6.00;;
85662;SDS011;76094;55.506;37.950;2024-03-08T01:53:24;12.50;;;5.45;;
85662;SDS011;76094;55.506;37.950;2024-03-08T01:55:53;13.60;;;5.68;;
85662;SDS011;76094;55.506;37.950;2024-03-08T01:58:26;13.02;;;5.38;;
85662;SDS011;76094;55.506;37.950;2024-03-08T02:00:58;13.38;;;5.57;;
85662;SDS011;76094;55.506;37.950;2024-03-08T02:03:25;10.75;;;5.25;;
85662;SDS011;76094;55.506;37.950;2024-03-08T02:05:52;12.82;;;5.18;;
85662;SDS011;76094;55.506;37.950;2024-03-08T02:08:19;12.48;;;4.78;;
85662;SDS011;76094;55.506;37.950;2024-03-08T02:10:49;9.02;;;5.05;;
85662;SDS011;76094;55.506;37.950;2024-03-08T02:13:16;7.72;;;4.45;;
85662;SDS011;76094;55.506;37.950;2024-03-08T02:15:56;19.15;;;5.20;;
85662;SDS011;76094;55.506;37.950;2024-03-08T02:18:45;11.18;;;5.10;;
85662;SDS011;76094;55.506;37.950;2024-03-08T02:21:11;8.90;;;5.07;;
85662;SDS011;76094;55.506;37.950;2024-03-08T02:23:38;9.15;;;5.00;;
85662;SDS011;76094;55.506;37.950;2024-03-08T02:26:04;11.05;;;5.05;;
85662;SDS011;76094;55.506;37.950;2024-03-08T02:28:31;8.38;;;4.70;;
85662;SDS011;76094;55.506;37.950;2024-03-08T02:30:57;9.48;;;4.88;;
85662;SDS011;76094;55.506;37.950;2024-03-08T02:33:25;10.15;;;4.30;;
85662;SDS011;76094;55.506;37.950;2024-03-08T02:35:52;20.95;;;5.00;;
85662;SDS011;76094;55.506;37.950;2024-03-08T02:38:19;9.85;;;4.43;;
85662;SDS011;76094;55.506;37.950;2024-03-08T02:40:47;8.18;;;4.63;;
85662;SDS011;76094;55.506;37.950;2024-03-08T02:43:15;15.32;;;4.65;;
85662;SDS011;76094;55.506;37.950;2024-03-08T02:45:44;7.82;;;4.13;;
85662;SDS011;76094;55.506;37.950;2024-03-08T02:48:14;10.48;;;4.65;;
85662;SDS011;76094;55.506;37.950;2024-03-08T02:50:42;7.57;;;4.45;;
85662;SDS011;76094;55.506;37.950;2024-03-08T02:53:09;11.13;;;4.63;;
85662;SDS011;76094;55.506;37.950;2024-03-08T02:55:40;7.95;;;4.28;;
85662;SDS011;76094;55.506;37.950;2024-03-08T02:58:08;8.25;;;4.60;;
85662;SDS011;76094;55.506;37.950;2024-03-08T03:00:36;8.68;;;4.45;;
85662;SDS011;76094;55.506;37.950;2024-03-08T03:03:05;8.40;;;4.32;;
85662;SDS011;76094;55.506;37.950;2024-03-08T03:05:32;10.20;;;4.55;;
85662;SDS011;76094;55.506;37.950;2024-03-08T03:08:00;11.52;;;4.40;;
85662;SDS011;76094;55.506;37.950;2024-03-08T03:10:26;8.00;;;3.70;;
85662;SDS011;76094;55.506;37.950;2024-03-08T03:12:53;10.73;;;4.65;;
85662;SDS011;76094;55.506;37.950;2024-03-08T03:15:19;8.18;;;4.65;;
85662;SDS011;76094;55.506;37.950;2024-03-08T03:17:50;9.43;;;4.55;;
85662;SDS011;76094;55.506;37.950;2024-03-08T03:20:19;9.05;;;4.63;;
85662;SDS011;76094;55.506;37.950;2024-03-08T03:22:52;8.70;;;4.43;;
85662;SDS011;76094;55.506;37.950;2024-03-08T03:25:19;7.90;;;4.45;;
85662;SDS011;76094;55.506;37.950;2024-03-08T03:27:55;10.13;;;4.97;;
85662;SDS011;76094;55.506;37.950;2024-03-08T03:30:24;12.18;;;5.15;;
85662;SDS011;76094;55.506;37.950;2024-03-08T03:32:53;8.18;;;4.38;;
85662;SDS011;76094;55.506;37.950;2024-03-08T03:35:21;7.75;;;4.53;;
85662;SDS011;76094;55.506;37.950;2024-03-08T03:37:48;15.30;;;4.70;;
85662;SDS011;76094;55.506;37.950;2024-03-08T03:40:32;7.22;;;4.38;;
85662;SDS011;76094;55.506;37.950;2024-03-08T03:43:01;7.32;;;4.13;;
85662;SDS011;76094;55.506;37.950;2024-03-08T03:45:28;7.70;;;4.70;;
85662;SDS011;76094;55.506;37.950;2024-03-08T03:47:55;10.45;;;4.40;;
85662;SDS011;76094;55.506;37.950;2024-03-08T03:50:21;7.13;;;4.28;;
85662;SDS011;76094;55.506;37.950;2024-03-08T03:52:49;9.75;;;5.03;;
85662;SDS011;76094;55.506;37.950;2024-03-08T03:55:15;9.60;;;4.45;;
85662;SDS011;76094;55.506;37.950;2024-03-08T03:57:42;10.32;;;4.63;;
85662;SDS011;76094;55.506;37.950;2024-03-08T04:00:09;8.63;;;4.55;;
85662;SDS011;76094;55.506;37.950;2024-03-08T04:02:42;9.15;;;4.90;;
85662;SDS011;76094;55.506;37.950;2024-03-08T04:05:09;10.20;;;4.75;;
85662;SDS011;76094;55.506;37.950;2024-03-08T04:07:37;11.50;;;4.88;;
85662;SDS011;76094;55.506;37.950;2024-03-08T04:10:04;13.85;;;5.13;;
85662;SDS011;76094;55.506;37.950;2024-03-08T04:12:33;7.85;;;4.38;;
85662;SDS011;76094;55.506;37.950;2024-03-08T04:15:00;8.95;;;4.50;;
85662;SDS011;76094;55.506;37.950;2024-03-08T04:17:30;8.48;;;4.43;;
85662;SDS011;76094;55.506;37.950;2024-03-08T04:19:57;10.77;;;4.40;;
85662;SDS011;76094;55.506;37.950;2024-03-08T04:22:23;12.52;;;4.60;;
85662;SDS011;76094;55.506;37.950;2024-03-08T04:24:49;9.88;;;4.18;;
85662;SDS011;76094;55.506;37.950;2024-03-08T04:27:16;9.27;;;4.53;;
85662;SDS011;76094;55.506;37.950;2024-03-08T04:29:43;6.65;;;4.25;;
85662;SDS011;76094;55.506;37.950;2024-03-08T04:32:09;6.80;;;4.15;;
85662;SDS011;76094;55.506;37.950;2024-03-08T04:34:36;7.45;;;4.15;;
85662;SDS011;76094;55.506;37.950;2024-03-08T04:37:03;13.48;;;4.53;;
85662;SDS011;76094;55.506;37.950;2024-03-08T04:39:31;7.63;;;4.63;;
85662;SDS011;76094;55.506;37.950;2024-03-08T04:41:59;9.93;;;4.82;;
85662;SDS011;76094;55.506;37.950;2024-03-08T04:44:36;8.98;;;4.72;;
85662;SDS011;76094;55.506;37.950;2024-03-08T04:47:03;9.82;;;4.40;;
85662;SDS011;76094;55.506;37.950;2024-03-08T04:49:32;9.15;;;4.70;;
85662;SDS011;76094;55.506;37.950;2024-03-08T04:52:03;9.70;;;4.90;;
85662;SDS011;76094;55.506;37.950;2024-03-08T04:54:30;6.60;;;4.18;;
85662;SDS011;76094;55.506;37.950;2024-03-08T04:56:57;9.90;;;4.57;;
85662;SDS011;76094;55.506;37.950;2024-03-08T04:59:26;8.90;;;4.68;;
85662;SDS011;76094;55.506;37.950;2024-03-08T05:01:53;9.55;;;4.63;;
85662;SDS011;76094;55.506;37.950;2024-03-08T05:04:19;17.38;;;5.30;;
85662;SDS011;76094;55.506;37.950;2024-03-08T05:06:45;9.23;;;4.40;;
85662;SDS011;76094;55.506;37.950;2024-03-08T05:09:12;7.93;;;4.30;;
85662;SDS011;76094;55.506;37.950;2024-03-08T05:11:42;12.05;;;4.25;;
85662;SDS011;76094;55.506;37.950;2024-03-08T05:14:10;9.70;;;4.80;;
85662;SDS011;76094;55.506;37.950;2024-03-08T05:16:37;7.18;;;4.40;;
85662;SDS011;76094;55.506;37.950;2024-03-08T05:19:03;6.63;;;4.20;;
85662;SDS011;76094;55.506;37.950;2024-03-08T05:21:29;5.97;;;4.10;;
85662;SDS011;76094;55.506;37.950;2024-03-08T05:23:56;10.50;;;5.35;;
85662;SDS011;76094;55.506;37.950;2024-03-08T05:26:22;13.70;;;4.38;;
85662;SDS011;76094;55.506;37.950;2024-03-08T05:28:48;8.20;;;4.55;;
85662;SDS011;76094;55.506;37.950;2024-03-08T05:31:21;8.27;;;5.00;;
85662;SDS011;76094;55.506;37.950;2024-03-08T05:33:50;8.10;;;4.45;;
85662;SDS011;76094;55.506;37.950;2024-03-08T05:36:16;8.07;;;4.90;;
85662;SDS011;76094;55.506;37.950;2024-03-08T05:38:43;13.18;;;5.25;;
85662;SDS011;76094;55.506;37.950;2024-03-08T05:41:10;9.05;;;5.13;;
85662;SDS011;76094;55.506;37.950;2024-03-08T05:43:40;8.52;;;5.30;;
85662;SDS011;76094;55.506;37.950;2024-03-08T05:46:07;9.95;;;5.47;;
85662;SDS011;76094;55.506;37.950;2024-03-08T05:48:33;8.13;;;4.70;;
85662;SDS011;76094;55.506;37.950;2024-03-08T05:51:00;14.80;;;5.38;;
85662;SDS011;76094;55.506;37.950;2024-03-08T05:53:28;10.32;;;5.60;;
85662;SDS011;76094;55.506;37.950;2024-03-08T05:55:58;10.10;;;5.07;;
85662;SDS011;76094;55.506;37.950;2024-03-08T05:58:25;8.88;;;5.30;;
85662;SDS011;76094;55.506;37.950;2024-03-08T06:00:51;12.75;;;5.95;;
85662;SDS011;76094;55.506;37.950;2024-03-08T06:03:18;11.65;;;5.47;;
85662;SDS011;76094;55.506;37.950;2024-03-08T06:05:50;13.30;;;5.80;;
85662;SDS011;76094;55.506;37.950;2024-03-08T06:08:17;9.85;;;6.43;;
85662;SDS011;76094;55.506;37.950;2024-03-08T06:10:45;8.88;;;5.40;;
85662;SDS011;76094;55.506;37.950;2024-03-08T06:13:11;11.57;;;5.43;;
85662;SDS011;76094;55.506;37.950;2024-03-08T06:15:43;11.65;;;6.15;;
85662;SDS011;76094;55.506;37.950;2024-03-08T06:18:10;10.88;;;5.75;;
85662;SDS011;76094;55.506;37.950;2024-03-08T06:20:37;13.30;;;6.28;;
85662;SDS011;76094;55.506;37.950;2024-03-08T06:23:03;10.63;;;6.00;;
85662;SDS011;76094;55.506;37.950;2024-03-08T06:25:30;11.15;;;6.13;;
85662;SDS011;76094;55.506;37.950;2024-03-08T06:27:57;10.57;;;5.88;;
85662;SDS011;76094;55.506;37.950;2024-03-08T06:30:23;13.95;;;6.30;;
85662;SDS011;76094;55.506;37.950;2024-03-08T06:32:49;10.90;;;5.45;;
85662;SDS011;76094;55.506;37.950;2024-03-08T06:35:16;10.68;;;5.32;;
85662;SDS011;76094;55.506;37.950;2024-03-08T06:37:42;11.07;;;5.63;;
85662;SDS011;76094;55.506;37.950;2024-03-08T06:40:10;10.70;;;5.53;;
85662;SDS011;76094;55.506;37.950;2024-03-08T06:42:40;12.43;;;6.00;;
85662;SDS011;76094;55.506;37.950;2024-03-08T06:45:07;10.45;;;5.80;;
85662;SDS011;76094;55.506;37.950;2024-03-08T06:47:35;9.43;;;5.72;;
85662;SDS011;76094;55.506;37.950;2024-03-08T06:50:01;9.63;;;5.88;;
85662;SDS011;76094;55.506;37.950;2024-03-08T06:52:28;8.65;;;5.43;;
85662;SDS011;76094;55.506;37.950;2024-03-08T06:54:54;11.98;;;5.45;;
85662;SDS011;76094;55.506;37.950;2024-03-08T06:57:23;12.50;;;5.63;;
85662;SDS011;76094;55.506;37.950;2024-03-08T06:59:49;10.13;;;5.82;;
85662;SDS011;76094;55.506;37.950;2024-03-08T07:02:18;10.85;;;5.63;;
85662;SDS011;76094;55.506;37.950;2024-03-08T07:04:44;9.43;;;5.82;;
85662;SDS011;76094;55.506;37.950;2024-03-08T07:07:11;8.98;;;5.30;;
85662;SDS011;76094;55.506;37.950;2024-03-08T07:09:37;10.98;;;5.90;;
85662;SDS011;76094;55.506;37.950;2024-03-08T07:12:04;11.23;;;5.50;;
85662;SDS011;76094;55.506;37.950;2024-03-08T07:14:30;9.20;;;5.18;;
85662;SDS011;76094;55.506;37.950;2024-03-08T07:16:57;8.63;;;4.97;;
85662;SDS011;76094;55.506;37.950;2024-03-08T07:19:23;10.38;;;5.63;;
85662;SDS011;76094;55.506;37.950;2024-03-08T07:21:50;8.18;;;5.05;;
85662;SDS011;76094;55.506;37.950;2024-03-08T07:24:18;9.52;;;5.28;;
85662;SDS011;76094;55.506;37.950;2024-03-08T07:27:05;8.40;;;5.38;;
85662;SDS011;76094;55.506;37.950;2024-03-08T07:29:32;11.70;;;5.40;;
85662;SDS011;76094;55.506;37.950;2024-03-08T07:31:59;9.25;;;5.57;;
85662;SDS011;76094;55.506;37.950;2024-03-08T07:34:47;9.82;;;5.53;;
85662;SDS011;76094;55.506;37.950;2024-03-08T07:37:16;9.63;;;5.53;;
85662;SDS011;76094;55.506;37.950;2024-03-08T07:39:43;9.70;;;5.60;;
85662;SDS011;76094;55.506;37.950;2024-03-08T07:42:09;11.52;;;5.80;;
85662;SDS011;76094;55.506;37.950;2024-03-08T07:44:38;11.30;;;6.47;;
85662;SDS011;76094;55.506;37.950;2024-03-08T07:47:05;10.18;;;6.38;;
85662;SDS011;76094;55.506;37.950;2024-03-08T07:49:35;9.13;;;5.68;;
85662;SDS011;76094;55.506;37.950;2024-03-08T07:52:03;9.90;;;6.38;;
85662;SDS011;76094;55.506;37.950;2024-03-08T07:54:30;10.98;;;5.93;;
85662;SDS011;76094;55.506;37.950;2024-03-08T07:56:57;12.27;;;6.15;;
85662;SDS011;76094;55.506;37.950;2024-03-08T07:59:23;8.13;;;5.53;;
85662;SDS011;76094;55.506;37.950;2024-03-08T08:01:49;17.35;;;6.50;;
85662;SDS011;76094;55.506;37.950;2024-03-08T08:04:16;10.43;;;5.53;;
85662;SDS011;76094;55.506;37.950;2024-03-08T08:06:44;12.18;;;6.05;;
85662;SDS011;76094;55.506;37.950;2024-03-08T08:09:10;10.07;;;6.25;;
85662;SDS011;76094;55.506;37.950;2024-03-08T08:11:48;12.70;;;5.88;;
85662;SDS011;76094;55.506;37.950;2024-03-08T08:14:14;9.75;;;5.97;;
85662;SDS011;76094;55.506;37.950;2024-03-08T08:16:41;8.88;;;6.15;;
85662;SDS011;76094;55.506;37.950;2024-03-08T08:19:08;9.88;;;6.28;;
85662;SDS011;76094;55.506;37.950;2024-03-08T08:21:35;9.77;;;5.95;;
85662;SDS011;76094;55.506;37.950;2024-03-08T08:24:04;11.10;;;6.25;;
85662;SDS011;76094;55.506;37.950;2024-03-08T08:26:31;18.58;;;6.40;;
85662;SDS011;76094;55.506;37.950;2024-03-08T08:29:00;11.23;;;6.30;;
85662;SDS011;76094;55.506;37.950;2024-03-08T08:31:27;10.07;;;6.13;;
85662;SDS011;76094;55.506;37.950;2024-03-08T08:33:54;13.00;;;6.72;;
85662;SDS011;76094;55.506;37.950;2024-03-08T08:36:24;14.30;;;7.43;;
85662;SDS011;76094;55.506;37.950;2024-03-08T08:38:51;11.13;;;6.40;;
85662;SDS011;76094;55.506;37.950;2024-03-08T08:41:20;12.55;;;6.45;;
85662;SDS011;76094;55.506;37.950;2024-03-08T08:43:47;15.40;;;6.55;;
85662;SDS011;76094;55.506;37.950;2024-03-08T08:46:18;10.40;;;6.55;;
85662;SDS011;76094;55.506;37.950;2024-03-08T08:48:44;12.82;;;6.93;;
85662;SDS011;76094;55.506;37.950;2024-03-08T08:51:13;13.20;;;7.13;;
85662;SDS011;76094;55.506;37.950;2024-03-08T08:53:42;10.55;;;7.18;;
85662;SDS011;76094;55.506;37.950;2024-03-08T08:56:09;12.50;;;7.20;;
85662;SDS011;76094;55.506;37.950;2024-03-08T08:58:39;11.38;;;7.05;;
85662;SDS011;76094;55.506;37.950;2024-03-08T09:01:08;16.48;;;7.28;;
85662;SDS011;76094;55.506;37.950;2024-03-08T09:03:36;11.82;;;6.97;;
85662;SDS011;76094;55.506;37.950;2024-03-08T09:06:06;11.68;;;7.70;;
85662;SDS011;76094;55.506;37.950;2024-03-08T09:08:36;13.10;;;7.68;;
85662;SDS011;76094;55.506;37.950;2024-03-08T09:11:04;16.13;;;8.95;;
85662;SDS011;76094;55.506;37.950;2024-03-08T09:13:31;11.02;;;7.38;;
85662;SDS011;76094;55.506;37.950;2024-03-08T09:16:00;12.35;;;7.30;;
85662;SDS011;76094;55.506;37.950;2024-03-08T09:18:26;9.70;;;7.05;;
85662;SDS011;76094;55.506;37.950;2024-03-08T09:20:53;12.65;;;7.50;;
85662;SDS011;76094;55.506;37.950;2024-03-08T09:23:20;12.88;;;7.38;;
85662;SDS011;76094;55.506;37.950;2024-03-08T09:25:46;14.35;;;7.93;;
85662;SDS011;76094;55.506;37.950;2024-03-08T09:28:13;17.58;;;7.47;;
85662;SDS011;76094;55.506;37.950;2024-03-08T09:30:39;15.27;;;7.65;;
85662;SDS011;76094;55.506;37.950;2024-03-08T09:33:06;11.93;;;7.90;;
85662;SDS011;76094;55.506;37.950;2024-03-08T09:35:33;13.70;;;7.20;;
85662;SDS011;76094;55.506;37.950;2024-03-08T09:37:59;11.63;;;7.32;;
85662;SDS011;76094;55.506;37.950;2024-03-08T09:40:25;12.93;;;7.68;;
85662;SDS011;76094;55.506;37.950;2024-03-08T09:42:53;12.25;;;7.65;;
85662;SDS011;76094;55.506;37.950;2024-03-08T09:45:21;11.27;;;7.47;;
85662;SDS011;76094;55.506;37.950;2024-03-08T09:47:48;15.43;;;7.55;;
85662;SDS011;76094;55.506;37.950;2024-03-08T09:50:17;14.30;;;7.75;;
85662;SDS011;76094;55.506;37.950;2024-03-08T09:52:46;13.23;;;8.02;;
85662;SDS011;76094;55.506;37.950;2024-03-08T09:55:14;12.00;;;7.15;;
85662;SDS011;76094;55.506;37.950;2024-03-08T09:57:44;15.32;;;8.05;;
85662;SDS011;76094;55.506;37.950;2024-03-08T10:00:33;18.98;;;7.72;;
85662;SDS011;76094;55.506;37.950;2024-03-08T10:03:00;15.10;;;7.57;;
85662;SDS011;76094;55.506;37.950;2024-03-08T10:05:28;12.27;;;7.70;;
85662;SDS011;76094;55.506;37.950;2024-03-08T10:07:55;11.38;;;7.45;;
85662;SDS011;76094;55.506;37.950;2024-03-08T10:10:21;17.80;;;7.45;;
85662;SDS011;76094;55.506;37.950;2024-03-08T10:12:48;11.30;;;7.65;;
85662;SDS011;76094;55.506;37.950;2024-03-08T10:15:15;12.48;;;7.60;;
85662;SDS011;76094;55.506;37.950;2024-03-08T10:17:42;15.77;;;7.53;;
85662;SDS011;76094;55.506;37.950;2024-03-08T10:20:16;17.80;;;7.88;;
85662;SDS011;76094;55.506;37.950;2024-03-08T10:22:43;11.60;;;7.50;;
85662;SDS011;76094;55.506;37.950;2024-03-08T10:25:13;13.05;;;7.75;;
85662;SDS011;76094;55.506;37.950;2024-03-08T10:27:39;19.67;;;8.35;;
85662;SDS011;76094;55.506;37.950;2024-03-08T10:30:15;16.50;;;7.95;;
85662;SDS011;76094;55.506;37.950;2024-03-08T10:32:46;12.30;;;7.38;;
85662;SDS011;76094;55.506;37.950;2024-03-08T10:35:12;12.80;;;7.65;;
85662;SDS011;76094;55.506;37.950;2024-03-08T10:37:44;12.43;;;7.65;;
85662;SDS011;76094;55.506;37.950;2024-03-08T10:40:18;21.08;;;7.63;;
85662;SDS011;76094;55.506;37.950;2024-03-08T10:45:26;22.88;;;7.63;;
85662;SDS011;76094;55.506;37.950;2024-03-08T10:48:04;9.45;;;6.70;;
85662;SDS011;76094;55.506;37.950;2024-03-08T10:50:36;13.95;;;7.57;;
85662;SDS011;76094;55.506;37.950;2024-03-08T10:53:02;13.85;;;7.82;;
85662;SDS011;76094;55.506;37.950;2024-03-08T10:55:29;10.23;;;7.03;;
85662;SDS011;76094;55.506;37.950;2024-03-08T10:57:56;12.40;;;7.90;;
85662;SDS011;76094;55.506;37.950;2024-03-08T11:00:22;12.80;;;7.53;;
85662;SDS011;76094;55.506;37.950;2024-03-08T11:02:55;11.70;;;7.53;;
85662;SDS011;76094;55.506;37.950;2024-03-08T11:05:32;14.95;;;7.10;;
85662;SDS011;76094;55.506;37.950;2024-03-08T11:08:15;13.93;;;7.50;;
85662;SDS011;76094;55.506;37.950;2024-03-08T11:13:32;14.45;;;7.63;;
85662;SDS011;76094;55.506;37.950;2024-03-08T11:16:02;11.85;;;7.38;;
85662;SDS011;76094;55.506;37.950;2024-03-08T11:18:35;25.65;;;14.10;;
85662;SDS011;76094;55.506;37.950;2024-03-08T11:21:04;13.15;;;8.07;;
85662;SDS011;76094;55.506;37.950;2024-03-08T11:26:19;15.60;;;7.40;;
85662;SDS011;76094;55.506;37.950;2024-03-08T11:28:46;14.25;;;7.50;;
85662;SDS011;76094;55.506;37.950;2024-03-08T11:36:21;13.63;;;6.80;;
85662;SDS011;76094;55.506;37.950;2024-03-08T11:38:51;20.38;;;9.25;;
85662;SDS011;76094;55.506;37.950;2024-03-08T11:41:19;11.95;;;7.63;;
85662;SDS011;76094;55.506;37.950;2024-03-08T11:43:47;12.27;;;7.63;;
85662;SDS011;76094;55.506;37.950;2024-03-08T11:46:15;11.95;;;7.47;;
85662;SDS011;76094;55.506;37.950;2024-03-08T11:48:43;14.68;;;7.72;;
85662;SDS011;76094;55.506;37.950;2024-03-08T11:51:13;10.57;;;7.28;;
85662;SDS011;76094;55.506;37.950;2024-03-08T11:53:40;13.77;;;6.80;;
85662;SDS011;76094;55.506;37.950;2024-03-08T11:56:10;10.50;;;7.15;;
85662;SDS011;76094;55.506;37.950;2024-03-08T11:58:38;11.93;;;7.32;;
85662;SDS011;76094;55.506;37.950;2024-03-08T12:01:06;13.35;;;7.10;;
85662;SDS011;76094;55.506;37.950;2024-03-08T12:03:39;11.82;;;7.25;;
85662;SDS011;76094;55.506;37.950;2024-03-08T12:06:08;12.40;;;6.80;;
85662;SDS011;76094;55.506;37.950;2024-03-08T12:08:35;12.13;;;7.38;;
85662;SDS011;76094;55.506;37.950;2024-03-08T12:11:06;11.77;;;7.00;;
85662;SDS011;76094;55.506;37.950;2024-03-08T12:13:33;14.88;;;6.97;;
85662;SDS011;76094;55.506;37.950;2024-03-08T12:16:03;13.15;;;7.35;;
85662;SDS011;76094;55.506;37.950;2024-03-08T12:18:37;11.85;;;7.35;;
85662;SDS011;76094;55.506;37.950;2024-03-08T12:21:05;12.90;;;7.50;;
85662;SDS011;76094;55.506;37.950;2024-03-08T12:23:33;11.93;;;7.53;;
85662;SDS011;76094;55.506;37.950;2024-03-08T12:26:10;11.88;;;6.85;;
85662;SDS011;76094;55.506;37.950;2024-03-08T12:28:42;13.68;;;8.00;;
85662;SDS011;76094;55.506;37.950;2024-03-08T12:31:14;14.05;;;6.50;;
85662;SDS011;76094;55.506;37.950;2024-03-08T12:33:52;15.60;;;7.15;;
85662;SDS011;76094;55.506;37.950;2024-03-08T12:36:20;11.35;;;6.97;;
85662;SDS011;76094;55.506;37.950;2024-03-08T12:38:47;13.75;;;7.30;;
85662;SDS011;76094;55.506;37.950;2024-03-08T12:41:17;13.30;;;7.38;;
85662;SDS011;76094;55.506;37.950;2024-03-08T12:43:44;11.85;;;7.05;;
85662;SDS011;76094;55.506;37.950;2024-03-08T12:46:15;10.77;;;6.40;;
85662;SDS011;76094;55.506;37.950;2024-03-08T12:48:42;12.70;;;6.80;;
85662;SDS011;76094;55.506;37.950;2024-03-08T12:51:13;12.32;;;6.82;;
85662;SDS011;76094;55.506;37.950;2024-03-08T12:53:42;12.60;;;7.53;;
85662;SDS011;76094;55.506;37.950;2024-03-08T12:56:20;15.90;;;7.35;;
85662;SDS011;76094;55.506;37.950;2024-03-08T12:58:59;13.73;;;6.78;;
85662;SDS011;76094;55.506;37.950;2024-03-08T13:01:26;14.15;;;7.40;;
85662;SDS011;76094;55.506;37.950;2024-03-08T13:03:54;9.43;;;6.43;;
85662;SDS011;76094;55.506;37.950;2024-03-08T13:06:24;12.75;;;7.50;;
85662;SDS011;76094;55.506;37.950;2024-03-08T13:08:51;12.18;;;7.38;;
85662;SDS011;76094;55.506;37.950;2024-03-08T13:11:22;12.98;;;7.07;;
85662;SDS011;76094;55.506;37.950;2024-03-08T13:13:51;12.07;;;6.97;;
85662;SDS011;76094;55.506;37.950;2024-03-08T13:16:21;12.63;;;7.25;;
85662;SDS011;76094;55.506;37.950;2024-03-08T13:18:47;12.68;;;7.00;;
85662;SDS011;76094;55.506;37.950;2024-03-08T13:21:33;10.95;;;6.82;;
85662;SDS011;76094;55.506;37.950;2024-03-08T13:24:01;11.57;;;6.78;;
85662;SDS011;76094;55.506;37.950;2024-03-08T13:26:27;8.55;;;6.03;;
85662;SDS011;76094;55.506;37.950;2024-03-08T13:28:58;10.15;;;6.57;;
85662;SDS011;76094;55.506;37.950;2024-03-08T13:31:25;12.20;;;7.20;;
85662;SDS011;76094;55.506;37.950;2024-03-08T13:33:51;12.88;;;6.53;;
85662;SDS011;76094;55.506;37.950;2024-03-08T13:36:23;12.18;;;6.97;;
85662;SDS011;76094;55.506;37.950;2024-03-08T13:38:55;12.45;;;7.45;;
85662;SDS011;76094;55.506;37.950;2024-03-08T13:41:25;14.73;;;6.15;;
85662;SDS011;76094;55.506;37.950;2024-03-08T13:43:51;11.02;;;6.72;;
85662;SDS011;76094;55.506;37.950;2024-03-08T13:46:19;12.95;;;7.07;;
85662;SDS011;76094;55.506;37.950;2024-03-08T13:48:45;12.80;;;7.05;;
85662;SDS011;76094;55.506;37.950;2024-03-08T13:51:12;15.18;;;7.30;;
85662;SDS011;76094;55.506;37.950;2024-03-08T13:53:41;12.63;;;7.25;;
85662;SDS011;76094;55.506;37.950;2024-03-08T13:56:08;15.07;;;7.50;;
85662;SDS011;76094;55.506;37.950;2024-03-08T13:58:36;11.88;;;6.55;;
85662;SDS011;76094;55.506;37.950;2024-03-08T14:01:03;15.65;;;6.57;;
85662;SDS011;76094;55.506;37.950;2024-03-08T14:03:31;11.73;;;6.72;;
85662;SDS011;76094;55.506;37.950;2024-03-08T14:05:58;11.40;;;6.07;;
85662;SDS011;76094;55.506;37.950;2024-03-08T14:08:26;10.88;;;6.32;;
85662;SDS011;76094;55.506;37.950;2024-03-08T14:10:53;14.18;;;6.70;;
85662;SDS011;76094;55.506;37.950;2024-03-08T14:13:21;9.57;;;6.22;;
85662;SDS011;76094;55.506;37.950;2024-03-08T14:15:47;22.17;;;6.30;;
85662;SDS011;76094;55.506;37.950;2024-03-08T14:18:14;10.15;;;5.72;;
85662;SDS011;76094;55.506;37.950;2024-03-08T14:20:41;11.48;;;5.90;;
85662;SDS011;76094;55.506;37.950;2024-03-08T14:23:08;9.57;;;5.95;;
85662;SDS011;76094;55.506;37.950;2024-03-08T14:25:34;9.10;;;5.95;;
85662;SDS011;76094;55.506;37.950;2024-03-08T14:28:00;8.90;;;5.50;;
85662;SDS011;76094;55.506;37.950;2024-03-08T14:30:33;9.93;;;5.70;;
85662;SDS011;76094;55.506;37.950;2024-03-08T14:33:02;9.07;;;5.07;;
85662;SDS011;76094;55.506;37.950;2024-03-08T14:35:29;8.65;;;5.40;;
85662;SDS011;76094;55.506;37.950;2024-03-08T14:37:56;8.57;;;5.40;;
85662;SDS011;76094;55.506;37.950;2024-03-08T14:40:26;9.32;;;5.60;;
85662;SDS011;76094;55.506;37.950;2024-03-08T14:42:53;10.45;;;6.28;;
85662;SDS011;76094;55.506;37.950;2024-03-08T14:45:19;8.75;;;5.10;;